createdAt,value
2023-03-22T00:00:37.618Z,100411.72
2023-03-22T00:01:41.625Z,100410.97
2023-03-22T00:02:44.334Z,100414.75
2023-03-22T00:03:48.073Z,100411.59
2023-03-22T00:04:50.497Z,100406.19
2023-03-22T00:05:57.667Z,100406.81
2023-03-22T00:07:00.099Z,100412.84
2023-03-22T00:08:07.327Z,100404.09
2023-03-22T00:09:09.511Z,100403.28
2023-03-22T00:10:12.085Z,100406.47
2023-03-22T00:11:14.240Z,100409.16
2023-03-22T00:12:16.436Z,100400.38
2023-03-22T00:13:19.056Z,100396.97
2023-03-22T00:14:21.368Z,100397.84
2023-03-22T00:15:23.776Z,100392.63
2023-03-22T00:16:26.192Z,100395.81
2023-03-22T00:17:28.569Z,100398.72
2023-03-22T00:18:30.968Z,100397.19
2023-03-22T00:19:33.930Z,100386.03
2023-03-22T00:20:39.385Z,100391.13
2023-03-22T00:21:41.664Z,100391.97
2023-03-22T00:22:44.020Z,100385.88
2023-03-22T00:23:46.545Z,100393.94
2023-03-22T00:24:48.741Z,100399.28
2023-03-22T00:25:51.996Z,100396.47
2023-03-22T00:26:54.197Z,100390.09
2023-03-22T00:27:56.509Z,100394.06
2023-03-22T00:28:59.112Z,100389.75
2023-03-22T00:30:01.324Z,100385.25
2023-03-22T00:31:04.657Z,100375.75
2023-03-22T00:32:08.551Z,100376.69
2023-03-22T00:33:10.778Z,100376.56
2023-03-22T00:34:13.418Z,100383.13
2023-03-22T00:35:15.598Z,100384.09
2023-03-22T00:36:17.761Z,100376.06
2023-03-22T00:37:19.977Z,100388.84
2023-03-22T00:38:29.960Z,100376.47
2023-03-22T00:39:42.656Z,100373.91
2023-03-22T00:40:45.519Z,100370.16
2023-03-22T00:41:47.849Z,100378.28
2023-03-22T00:42:50.635Z,100378.63
2023-03-22T00:43:53.593Z,100372.41
2023-03-22T00:44:55.945Z,100371.63
2023-03-22T00:45:58.126Z,100367.06
2023-03-22T00:47:00.720Z,100361.75
2023-03-22T00:48:03.468Z,100366.19
2023-03-22T00:49:06.017Z,100365.53
2023-03-22T00:50:08.611Z,100367.06
2023-03-22T00:51:13.206Z,100367.06
2023-03-22T00:52:15.660Z,100370.59
2023-03-22T00:53:17.910Z,100373.88
2023-03-22T00:54:20.866Z,100371.38
2023-03-22T00:55:23.506Z,100372.56
2023-03-22T00:56:28.637Z,100372.78
2023-03-22T00:57:45.471Z,100374.38
2023-03-22T00:58:47.704Z,100364.44
2023-03-22T00:59:50.833Z,100366.53
2023-03-22T01:00:53.255Z,100367.28
2023-03-22T01:01:57.993Z,100371.84
2023-03-22T01:03:05.021Z,100361.97
2023-03-22T01:04:07.403Z,100366.19
2023-03-22T01:05:16.005Z,100371.97
2023-03-22T01:06:18.686Z,100366.41
2023-03-22T01:07:24.028Z,100369.72
2023-03-22T01:08:32.890Z,100370.59
2023-03-22T01:09:35.821Z,100370.75
2023-03-22T01:10:39.532Z,100369.09
2023-03-22T01:11:43.080Z,100365.91
2023-03-22T01:12:45.616Z,100374.88
2023-03-22T01:13:48.069Z,100370.53
2023-03-22T01:14:50.613Z,100377.03
2023-03-22T01:15:52.850Z,100370.69
2023-03-22T01:16:57.540Z,100370.53
2023-03-22T01:18:00.803Z,100367.13
2023-03-22T01:19:03.586Z,100367.47
2023-03-22T01:20:07.311Z,100369.44
2023-03-22T01:21:09.902Z,100369.44
2023-03-22T01:22:12.345Z,100371.84
2023-03-22T01:23:15.171Z,100374.47
2023-03-22T01:24:17.564Z,100367.47
2023-03-22T01:25:20.098Z,100362.50
2023-03-22T01:26:22.321Z,100364.38
2023-03-22T01:27:25.310Z,100350.06
2023-03-22T01:28:28.410Z,100361.47
2023-03-22T01:29:31.607Z,100354.28
2023-03-22T01:30:34.019Z,100362.84
2023-03-22T01:31:36.247Z,100357.72
2023-03-22T01:32:39.274Z,100360.97
2023-03-22T01:33:41.704Z,100362.72
2023-03-22T01:34:43.860Z,100361.63
2023-03-22T01:35:46.593Z,100359.00
2023-03-22T01:36:50.383Z,100354.72
2023-03-22T01:37:52.661Z,100355.69
2023-03-22T01:38:55.978Z,100354.91
2023-03-22T01:39:58.926Z,100353.19
2023-03-22T01:41:01.537Z,100346.25
2023-03-22T01:42:06.878Z,100342.63
2023-03-22T01:43:14.927Z,100341.13
2023-03-22T01:44:23.464Z,100346.47
2023-03-22T01:45:35.012Z,100341.03
2023-03-22T01:46:37.873Z,100346.66
2023-03-22T01:47:58.328Z,100336.75
2023-03-22T01:49:02.612Z,100334.41
2023-03-22T01:50:06.398Z,100327.97
2023-03-22T01:51:22.788Z,100330.78
2023-03-22T01:52:38.462Z,100331.78
2023-03-22T01:54:00.396Z,100334.03
2023-03-22T01:55:04.598Z,100327.28
2023-03-22T01:56:19.695Z,100331.50
2023-03-22T01:57:22.430Z,100329.00
2023-03-22T01:58:25.537Z,100324.53
2023-03-22T01:59:32.454Z,100332.66
2023-03-22T02:00:52.120Z,100327.41
2023-03-22T02:02:19.278Z,100325.59
2023-03-22T02:03:54.906Z,100324.16
2023-03-22T02:04:58.891Z,100323.38
2023-03-22T02:06:04.422Z,100318.75
2023-03-22T02:07:10.700Z,100318.66
2023-03-22T02:08:14.974Z,100317.03
2023-03-22T02:09:43.602Z,100318.00
2023-03-22T02:10:46.923Z,100324.28
2023-03-22T02:12:01.519Z,100325.03
2023-03-22T02:13:23.463Z,100321.75
2023-03-22T02:15:07.380Z,100325.44
2023-03-22T02:17:03.414Z,100321.75
2023-03-22T02:18:16.483Z,100319.81
2023-03-22T02:19:35.236Z,100320.69
2023-03-22T02:20:41.847Z,100323.38
2023-03-22T02:22:15.069Z,100326.50
2023-03-22T02:23:39.173Z,100323.13
2023-03-22T02:25:36.854Z,100326.13
2023-03-22T02:27:02.936Z,100325.50
2023-03-22T02:28:17.508Z,100327.28
2023-03-22T02:29:58.523Z,100321.50
2023-03-22T02:31:38.128Z,100317.91
2023-03-22T02:32:58.682Z,100311.69
2023-03-22T02:34:33.413Z,100309.88
2023-03-22T02:36:01.673Z,100311.53
2023-03-22T02:37:06.837Z,100311.31
2023-03-22T02:39:04.565Z,100311.31
2023-03-22T02:40:27.421Z,100314.22
2023-03-22T02:42:00.410Z,100312.81
2023-03-22T02:43:38.461Z,100305.25
2023-03-22T02:45:27.954Z,100305.97
2023-03-22T02:46:39.044Z,100304.31
2023-03-22T02:47:49.245Z,100306.03
2023-03-22T02:49:14.700Z,100302.03
2023-03-22T02:50:19.940Z,100296.81
2023-03-22T02:51:32.964Z,100295.16
2023-03-22T02:52:40.568Z,100296.22
2023-03-22T02:53:48.727Z,100302.56
2023-03-22T02:54:59.711Z,100297.03
2023-03-22T02:56:14.838Z,100300.78
2023-03-22T02:57:25.529Z,100297.84
2023-03-22T02:58:45.924Z,100301.50
2023-03-22T02:59:51.715Z,100297.31
2023-03-22T03:01:01.869Z,100292.66
2023-03-22T03:02:06.232Z,100301.75
2023-03-22T03:03:14.879Z,100306.03
2023-03-22T03:04:21.769Z,100300.09
2023-03-22T03:05:26.654Z,100292.88
2023-03-22T03:06:33.531Z,100294.69
2023-03-22T03:07:37.756Z,100299.22
2023-03-22T03:08:41.121Z,100301.09
2023-03-22T03:09:44.600Z,100293.09
2023-03-22T03:10:48.514Z,100306.72
2023-03-22T03:11:53.483Z,100301.38
2023-03-22T03:12:58.083Z,100298.81
2023-03-22T03:14:00.596Z,100302.50
2023-03-22T03:15:03.198Z,100304.22
2023-03-22T03:16:07.851Z,100304.84
2023-03-22T03:17:19.209Z,100300.16
2023-03-22T03:18:47.260Z,100296.72
2023-03-22T03:20:30.268Z,100297.47
2023-03-22T03:22:02.236Z,100292.44
2023-03-22T03:23:42.610Z,100297.41
2023-03-22T03:24:52.404Z,100292.22
2023-03-22T03:26:06.807Z,100289.38
2023-03-22T03:27:21.747Z,100296.13
2023-03-22T03:28:38.537Z,100295.53
2023-03-22T03:30:04.934Z,100289.78
2023-03-22T03:31:10.331Z,100294.31
2023-03-22T03:32:27.952Z,100295.06
2023-03-22T03:33:33.759Z,100302.28
2023-03-22T03:34:45.790Z,100301.63
2023-03-22T03:35:53.431Z,100304.09
2023-03-22T03:37:04.044Z,100297.41
2023-03-22T03:38:13.015Z,100304.81
2023-03-22T03:39:18.286Z,100310.34
2023-03-22T03:40:44.277Z,100308.53
2023-03-22T03:41:50.191Z,100307.56
2023-03-22T03:42:56.199Z,100312.03
2023-03-22T03:44:00.025Z,100308.53
2023-03-22T03:45:02.796Z,100304.91
2023-03-22T03:46:07.515Z,100308.44
2023-03-22T03:47:11.416Z,100308.44
2023-03-22T03:48:24.519Z,100299.28
2023-03-22T03:49:27.417Z,100304.94
2023-03-22T03:50:30.178Z,100308.81
2023-03-22T03:51:33.505Z,100304.19
2023-03-22T03:52:36.228Z,100312.03
2023-03-22T03:53:38.943Z,100308.53
2023-03-22T03:54:41.144Z,100307.69
2023-03-22T03:55:48.885Z,100304.34
2023-03-22T03:56:52.052Z,100303.44
2023-03-22T03:57:54.283Z,100308.53
2023-03-22T03:58:56.849Z,100311.16
2023-03-22T03:59:59.292Z,100307.69
2023-03-22T04:01:21.884Z,100310.63
2023-03-22T04:02:34.109Z,100308.94
2023-03-22T04:03:37.583Z,100305.16
2023-03-22T04:05:04.077Z,100302.78
2023-03-22T04:06:06.585Z,100305.63
2023-03-22T04:07:13.060Z,100306.38
2023-03-22T04:08:15.363Z,100307.06
2023-03-22T04:09:18.021Z,100294.06
2023-03-22T04:10:25.035Z,100301.28
2023-03-22T04:11:27.621Z,100302.31
2023-03-22T04:12:34.979Z,100299.88
2023-03-22T04:13:52.350Z,100304.09
2023-03-22T04:14:57.601Z,100303.78
2023-03-22T04:16:02.627Z,100303.72
2023-03-22T04:17:09.495Z,100305.56
2023-03-22T04:18:12.855Z,100301.03
2023-03-22T04:19:15.752Z,100299.31
2023-03-22T04:20:18.633Z,100302.25
2023-03-22T04:21:22.848Z,100302.34
2023-03-22T04:22:40.717Z,100300.69
2023-03-22T04:23:46.829Z,100299.56
2023-03-22T04:24:50.225Z,100305.97
2023-03-22T04:25:59.854Z,100305.03
2023-03-22T04:27:13.539Z,100297.16
2023-03-22T04:28:33.885Z,100302.34
2023-03-22T04:29:36.697Z,100300.63
2023-03-22T04:31:04.254Z,100314.88
2023-03-22T04:32:36.008Z,100303.34
2023-03-22T04:33:39.370Z,100307.91
2023-03-22T04:34:53.083Z,100303.41
2023-03-22T04:35:57.518Z,100303.56
2023-03-22T04:37:08.299Z,100307.91
2023-03-22T04:38:14.632Z,100303.41
2023-03-22T04:39:17.131Z,100308.50
2023-03-22T04:40:31.683Z,100299.81
2023-03-22T04:41:38.240Z,100303.97
2023-03-22T04:42:40.552Z,100299.81
2023-03-22T04:43:51.079Z,100305.25
2023-03-22T04:44:53.845Z,100306.16
2023-03-22T04:45:58.299Z,100298.94
2023-03-22T04:47:07.709Z,100299.47
2023-03-22T04:48:11.345Z,100300.69
2023-03-22T04:49:14.544Z,100299.91
2023-03-22T04:50:18.475Z,100297.22
2023-03-22T04:51:28.041Z,100304.34
2023-03-22T04:52:45.697Z,100300.53
2023-03-22T04:53:48.155Z,100302.31
2023-03-22T04:54:50.942Z,100309.47
2023-03-22T04:55:57.103Z,100295.13
2023-03-22T04:57:01.771Z,100298.00
2023-03-22T04:58:08.036Z,100294.78
2023-03-22T04:59:11.766Z,100296.81
2023-03-22T05:00:15.356Z,100301.44
2023-03-22T05:01:19.177Z,100299.91
2023-03-22T05:02:28.768Z,100295.47
2023-03-22T05:03:31.821Z,100294.84
2023-03-22T05:04:34.393Z,100292.00
2023-03-22T05:06:15.584Z,100291.28
2023-03-22T05:07:28.121Z,100298.16
2023-03-22T05:08:33.903Z,100292.88
2023-03-22T05:09:37.418Z,100293.63
2023-03-22T05:10:41.361Z,100291.84
2023-03-22T05:11:44.382Z,100293.41
2023-03-22T05:12:59.315Z,100299.63
2023-03-22T05:14:08.775Z,100296.25
2023-03-22T05:15:11.852Z,100299.81
2023-03-22T05:16:15.521Z,100296.53
2023-03-22T05:17:24.537Z,100299.19
2023-03-22T05:18:30.438Z,100296.63
2023-03-22T05:19:33.982Z,100298.16
2023-03-22T05:20:37.678Z,100298.97
2023-03-22T05:21:50.180Z,100291.00
2023-03-22T05:22:56.990Z,100291.84
2023-03-22T05:24:01.724Z,100290.97
2023-03-22T05:25:06.381Z,100302.56
2023-03-22T05:26:10.411Z,100297.34
2023-03-22T05:27:14.209Z,100297.16
2023-03-22T05:28:21.573Z,100292.78
2023-03-22T05:29:45.098Z,100300.53
2023-03-22T05:30:59.421Z,100296.00
2023-03-22T05:32:08.030Z,100295.13
2023-03-22T05:33:10.618Z,100295.03
2023-03-22T05:34:20.338Z,100301.84
2023-03-22T05:35:22.848Z,100292.91
2023-03-22T05:36:29.824Z,100295.25
2023-03-22T05:37:47.015Z,100299.81
2023-03-22T05:38:51.393Z,100296.44
2023-03-22T05:39:53.900Z,100297.31
2023-03-22T05:41:00.430Z,100295.56
2023-03-22T05:42:05.966Z,100295.63
2023-03-22T05:43:13.336Z,100295.03
2023-03-22T05:44:19.995Z,100294.13
2023-03-22T05:45:41.344Z,100295.75
2023-03-22T05:46:59.664Z,100301.59
2023-03-22T05:48:09.645Z,100297.13
2023-03-22T05:49:12.858Z,100286.22
2023-03-22T05:50:19.827Z,100294.50
2023-03-22T05:51:27.439Z,100302.38
2023-03-22T05:52:29.779Z,100295.31
2023-03-22T05:53:51.772Z,100298.78
2023-03-22T05:54:57.424Z,100295.88
2023-03-22T05:56:02.784Z,100296.66
2023-03-22T05:57:08.107Z,100295.97
2023-03-22T05:58:10.960Z,100297.59
2023-03-22T05:59:15.263Z,100298.34
2023-03-22T06:00:18.827Z,100289.50
2023-03-22T06:01:41.104Z,100300.94
2023-03-22T06:03:00.652Z,100302.28
2023-03-22T06:04:03.847Z,100299.81
2023-03-22T06:05:16.859Z,100301.63
2023-03-22T06:06:19.253Z,100302.34
2023-03-22T06:07:30.239Z,100302.09
2023-03-22T06:08:39.392Z,100292.41
2023-03-22T06:09:42.019Z,100302.28
2023-03-22T06:10:51.151Z,100304.38
2023-03-22T06:11:53.525Z,100292.53
2023-03-22T06:12:56.153Z,100294.47
2023-03-22T06:14:03.580Z,100299.78
2023-03-22T06:15:20.947Z,100297.63
2023-03-22T06:16:41.844Z,100294.72
2023-03-22T06:17:44.214Z,100295.00
2023-03-22T06:18:50.114Z,100299.50
2023-03-22T06:19:56.172Z,100295.75
2023-03-22T06:21:00.772Z,100294.63
2023-03-22T06:22:03.223Z,100291.78
2023-03-22T06:23:08.252Z,100289.84
2023-03-22T06:24:11.893Z,100294.19
2023-03-22T06:25:15.688Z,100286.38
2023-03-22T06:26:21.530Z,100276.91
2023-03-22T06:27:23.910Z,100285.81
2023-03-22T06:28:29.920Z,100282.28
2023-03-22T06:29:33.908Z,100283.59
2023-03-22T06:30:39.393Z,100280.63
2023-03-22T06:32:08.376Z,100284.91
2023-03-22T06:33:11.001Z,100291.34
2023-03-22T06:34:17.702Z,100281.22
2023-03-22T06:35:22.360Z,100286.44
2023-03-22T06:36:24.915Z,100287.44
2023-03-22T06:37:39.956Z,100288.53
2023-03-22T06:38:44.057Z,100284.91
2023-03-22T06:39:46.389Z,100283.91
2023-03-22T06:40:49.081Z,100284.03
2023-03-22T06:41:52.052Z,100285.41
2023-03-22T06:42:54.487Z,100287.00
2023-03-22T06:43:58.825Z,100288.63
2023-03-22T06:45:33.669Z,100282.31
2023-03-22T06:46:40.901Z,100288.25
2023-03-22T06:47:52.166Z,100296.56
2023-03-22T06:49:28.004Z,100289.78
2023-03-22T06:50:31.473Z,100290.22
2023-03-22T06:51:41.474Z,100283.47
2023-03-22T06:52:44.157Z,100280.84
2023-03-22T06:53:48.371Z,100283.91
2023-03-22T06:54:50.916Z,100283.63
2023-03-22T06:55:55.277Z,100276.22
2023-03-22T06:56:59.543Z,100288.47
2023-03-22T06:58:02.405Z,100284.06
2023-03-22T06:59:04.812Z,100284.47
2023-03-22T07:00:07.648Z,100288.63
2023-03-22T07:01:10.046Z,100282.03
2023-03-22T07:02:12.805Z,100287.56
2023-03-22T07:03:18.411Z,100291.59
2023-03-22T07:04:25.917Z,100282.94
2023-03-22T07:05:29.111Z,100288.00
2023-03-22T07:06:32.706Z,100289.66
2023-03-22T07:07:35.394Z,100293.44
2023-03-22T07:08:38.424Z,100286.41
2023-03-22T07:09:42.606Z,100289.09
2023-03-22T07:10:50.207Z,100279.16
2023-03-22T07:11:54.482Z,100289.66
2023-03-22T07:12:58.125Z,100285.81
2023-03-22T07:14:01.724Z,100293.63
2023-03-22T07:15:26.962Z,100286.91
2023-03-22T07:16:41.585Z,100287.53
2023-03-22T07:17:44.747Z,100285.69
2023-03-22T07:18:48.290Z,100291.56
2023-03-22T07:19:50.965Z,100294.03
2023-03-22T07:20:53.372Z,100287.63
2023-03-22T07:21:55.640Z,100297.44
2023-03-22T07:22:58.912Z,100292.56
2023-03-22T07:24:04.001Z,100287.50
2023-03-22T07:25:08.143Z,100289.50
2023-03-22T07:26:13.335Z,100297.63
2023-03-22T07:27:19.770Z,100299.34
2023-03-22T07:28:22.571Z,100297.84
2023-03-22T07:29:24.894Z,100286.78
2023-03-22T07:30:27.306Z,100295.09
2023-03-22T07:31:29.677Z,100293.75
2023-03-22T07:32:39.761Z,100293.53
2023-03-22T07:33:46.278Z,100290.84
2023-03-22T07:34:48.979Z,100295.25
2023-03-22T07:35:53.821Z,100296.34
2023-03-22T07:36:57.057Z,100292.41
2023-03-22T07:38:02.544Z,100293.03
2023-03-22T07:39:07.817Z,100290.81
2023-03-22T07:40:14.331Z,100283.66
2023-03-22T07:41:18.187Z,100289.69
2023-03-22T07:42:31.234Z,100286.88
2023-03-22T07:44:04.789Z,100278.47
2023-03-22T07:45:19.570Z,100282.91
2023-03-22T07:46:21.930Z,100272.41
2023-03-22T07:47:52.552Z,100285.19
2023-03-22T07:48:54.785Z,100277.78
2023-03-22T07:50:17.580Z,100276.78
2023-03-22T07:51:22.585Z,100276.84
2023-03-22T07:52:24.849Z,100277.03
2023-03-22T07:53:27.889Z,100281.09
2023-03-22T07:54:34.203Z,100279.72
2023-03-22T07:55:38.948Z,100283.91
2023-03-22T07:56:42.880Z,100282.16
2023-03-22T07:57:45.485Z,100278.47
2023-03-22T07:58:48.350Z,100278.78
2023-03-22T07:59:50.875Z,100280.31
2023-03-22T08:00:53.230Z,100279.00
2023-03-22T08:02:18.684Z,100279.19
2023-03-22T08:03:25.425Z,100273.53
2023-03-22T08:04:53.365Z,100281.34
2023-03-22T08:06:10.279Z,100278.03
2023-03-22T08:07:14.031Z,100269.88
2023-03-22T08:08:16.983Z,100270.09
2023-03-22T08:09:21.156Z,100271.56
2023-03-22T08:10:25.453Z,100265.72
2023-03-22T08:11:29.614Z,100266.16
2023-03-22T08:12:34.199Z,100266.97
2023-03-22T08:14:05.978Z,100268.50
2023-03-22T08:15:11.617Z,100261.44
2023-03-22T08:16:14.133Z,100257.13
2023-03-22T08:17:17.852Z,100254.13
2023-03-22T08:18:20.219Z,100257.25
2023-03-22T08:19:23.115Z,100264.53
2023-03-22T08:20:27.450Z,100270.41
2023-03-22T08:21:34.813Z,100271.50
2023-03-22T08:22:38.488Z,100246.91
2023-03-22T08:23:59.361Z,100252.63
2023-03-22T08:25:01.870Z,100252.38
2023-03-22T08:26:08.322Z,100261.13
2023-03-22T08:27:10.668Z,100256.38
2023-03-22T08:28:21.634Z,100255.00
2023-03-22T08:29:25.518Z,100252.97
2023-03-22T08:30:28.491Z,100257.91
2023-03-22T08:31:31.650Z,100257.84
2023-03-22T08:32:34.777Z,100262.84
2023-03-22T08:33:38.784Z,100263.03
2023-03-22T08:34:42.188Z,100256.53
2023-03-22T08:35:45.328Z,100261.19
2023-03-22T08:36:48.091Z,100261.84
2023-03-22T08:37:54.148Z,100251.66
2023-03-22T08:38:57.394Z,100257.75
2023-03-22T08:40:11.445Z,100253.06
2023-03-22T08:41:20.972Z,100262.06
2023-03-22T08:42:23.273Z,100256.44
2023-03-22T08:43:26.540Z,100255.25
2023-03-22T08:44:29.237Z,100263.13
2023-03-22T08:45:31.996Z,100257.09
2023-03-22T08:46:44.044Z,100257.94
2023-03-22T08:47:46.505Z,100259.88
2023-03-22T08:48:52.780Z,100260.03
2023-03-22T08:50:01.828Z,100256.44
2023-03-22T08:51:14.796Z,100260.97
2023-03-22T08:52:28.880Z,100257.88
2023-03-22T08:53:38.203Z,100258.81
2023-03-22T08:55:08.423Z,100259.69
2023-03-22T08:56:32.415Z,100252.66
2023-03-22T08:57:50.368Z,100263.34
2023-03-22T08:59:09.841Z,100264.06
2023-03-22T09:00:47.667Z,100263.50
2023-03-22T09:01:59.409Z,100260.19
2023-03-22T09:03:01.704Z,100264.75
2023-03-22T09:04:05.635Z,100262.91
2023-03-22T09:05:08.847Z,100262.69
2023-03-22T09:06:14.069Z,100266.78
2023-03-22T09:07:20.317Z,100267.09
2023-03-22T09:08:31.272Z,100258.56
2023-03-22T09:09:41.038Z,100264.53
2023-03-22T09:10:44.509Z,100263.69
2023-03-22T09:11:48.240Z,100260.22
2023-03-22T09:12:50.758Z,100261.94
2023-03-22T09:13:53.028Z,100251.44
2023-03-22T09:14:57.001Z,100253.56
2023-03-22T09:16:01.255Z,100258.88
2023-03-22T09:17:06.903Z,100247.53
2023-03-22T09:18:09.441Z,100248.34
2023-03-22T09:19:11.885Z,100253.19
2023-03-22T09:20:15.014Z,100250.09
2023-03-22T09:21:22.078Z,100248.88
2023-03-22T09:22:53.505Z,100249.16
2023-03-22T09:23:56.761Z,100245.38
2023-03-22T09:25:10.400Z,100236.84
2023-03-22T09:26:15.295Z,100243.28
2023-03-22T09:27:18.058Z,100246.31
2023-03-22T09:28:20.519Z,100237.28
2023-03-22T09:29:23.277Z,100248.09
2023-03-22T09:30:25.534Z,100247.44
2023-03-22T09:31:28.104Z,100242.13
2023-03-22T09:32:44.521Z,100237.72
2023-03-22T09:33:49.980Z,100243.31
2023-03-22T09:34:52.664Z,100241.03
2023-03-22T09:35:57.037Z,100230.94
2023-03-22T09:37:02.486Z,100232.81
2023-03-22T09:38:14.120Z,100237.22
2023-03-22T09:39:19.247Z,100225.78
2023-03-22T09:40:36.549Z,100223.88
2023-03-22T09:42:02.606Z,100226.69
2023-03-22T09:43:09.566Z,100224.97
2023-03-22T09:44:22.476Z,100215.06
2023-03-22T09:45:41.862Z,100210.19
2023-03-22T09:46:48.588Z,100209.66
2023-03-22T09:47:55.004Z,100209.94
2023-03-22T09:49:00.808Z,100208.19
2023-03-22T09:50:13.688Z,100206.56
2023-03-22T09:51:41.196Z,100203.25
2023-03-22T09:52:43.990Z,100197.84
2023-03-22T09:53:46.341Z,100195.09
2023-03-22T09:54:50.417Z,100204.06
2023-03-22T09:56:03.201Z,100204.88
2023-03-22T09:57:12.452Z,100207.88
2023-03-22T09:58:36.203Z,100206.38
2023-03-22T09:59:57.018Z,100212.38
2023-03-22T10:00:59.532Z,100201.66
2023-03-22T10:02:17.494Z,100197.88
2023-03-22T10:03:42.831Z,100191.09
2023-03-22T10:04:54.009Z,100195.13
2023-03-22T10:06:08.893Z,100182.78
2023-03-22T10:07:27.257Z,100190.94
2023-03-22T10:08:55.086Z,100187.03
2023-03-22T10:10:13.077Z,100188.19
2023-03-22T10:11:29.814Z,100189.25
2023-03-22T10:12:39.541Z,100184.19
2023-03-22T10:13:54.505Z,100188.19
2023-03-22T10:15:06.440Z,100177.66
2023-03-22T10:16:16.518Z,100184.66
2023-03-22T10:17:25.422Z,100178.88
2023-03-22T10:18:34.780Z,100189.03
2023-03-22T10:19:49.945Z,100182.59
2023-03-22T10:21:08.779Z,100179.41
2023-03-22T10:22:16.525Z,100173.72
2023-03-22T10:23:28.703Z,100178.47
2023-03-22T10:24:38.434Z,100176.25
2023-03-22T10:25:42.626Z,100178.72
2023-03-22T10:26:47.653Z,100179.59
2023-03-22T10:27:51.713Z,100172.97
2023-03-22T10:29:22.838Z,100176.25
2023-03-22T10:30:26.365Z,100165.31
2023-03-22T10:31:29.070Z,100165.81
2023-03-22T10:32:56.997Z,100166.53
2023-03-22T10:34:03.733Z,100161.22
2023-03-22T10:35:06.701Z,100164.56
2023-03-22T10:36:13.738Z,100163.72
2023-03-22T10:37:36.216Z,100162.50
2023-03-22T10:38:49.666Z,100156.97
2023-03-22T10:39:55.595Z,100166.69
2023-03-22T10:41:00.124Z,100148.75
2023-03-22T10:42:07.375Z,100151.75
2023-03-22T10:43:22.293Z,100157.72
2023-03-22T10:44:27.633Z,100156.34
2023-03-22T10:45:33.759Z,100152.13
2023-03-22T10:46:39.491Z,100151.59
2023-03-22T10:47:47.075Z,100147.81
2023-03-22T10:48:53.167Z,100149.03
2023-03-22T10:49:57.742Z,100145.88
2023-03-22T10:51:01.653Z,100150.63
2023-03-22T10:52:20.296Z,100151.63
2023-03-22T10:53:39.720Z,100147.53
2023-03-22T10:54:42.418Z,100145.88
2023-03-22T10:55:44.701Z,100136.91
2023-03-22T10:56:47.298Z,100139.16
2023-03-22T10:58:12.526Z,100142.06
2023-03-22T10:59:51.918Z,100142.63
2023-03-22T11:00:57.912Z,100148.66
2023-03-22T11:02:01.731Z,100146.19
2023-03-22T11:03:07.141Z,100145.97
2023-03-22T11:04:15.123Z,100144.16
2023-03-22T11:05:26.656Z,100144.06
2023-03-22T11:06:33.074Z,100140.81
2023-03-22T11:07:54.531Z,100140.41
2023-03-22T11:09:23.974Z,100144.06
2023-03-22T11:10:33.101Z,100140.81
2023-03-22T11:11:38.661Z,100132.16
2023-03-22T11:12:49.659Z,100142.88
2023-03-22T11:14:16.404Z,100134.91
2023-03-22T11:15:33.349Z,100137.47
2023-03-22T11:16:56.118Z,100128.47
2023-03-22T11:18:12.880Z,100132.38
2023-03-22T11:19:22.581Z,100127.06
2023-03-22T11:20:24.954Z,100126.13
2023-03-22T11:21:33.266Z,100123.84
2023-03-22T11:22:39.087Z,100129.47
2023-03-22T11:23:46.789Z,100123.06
2023-03-22T11:24:51.042Z,100113.00
2023-03-22T11:25:58.667Z,100114.66
2023-03-22T11:27:08.422Z,100112.44
2023-03-22T11:28:28.788Z,100114.97
2023-03-22T11:29:42.319Z,100109.25
2023-03-22T11:31:09.025Z,100106.44
2023-03-22T11:32:28.001Z,100114.50
2023-03-22T11:33:31.559Z,100106.97
2023-03-22T11:34:33.994Z,100109.50
2023-03-22T11:35:39.756Z,100106.09
2023-03-22T11:36:45.392Z,100108.41
2023-03-22T11:37:52.535Z,100104.84
2023-03-22T11:39:06.153Z,100104.00
2023-03-22T11:40:17.593Z,100097.13
2023-03-22T11:41:27.097Z,100105.63
2023-03-22T11:42:29.624Z,100106.41
2023-03-22T11:43:36.938Z,100093.28
2023-03-22T11:44:39.259Z,100090.66
2023-03-22T11:45:45.645Z,100094.75
2023-03-22T11:47:00.794Z,100090.22
2023-03-22T11:48:07.127Z,100088.78
2023-03-22T11:49:16.213Z,100088.97
2023-03-22T11:50:32.589Z,100079.91
2023-03-22T11:51:38.578Z,100086.44
2023-03-22T11:52:47.751Z,100081.06
2023-03-22T11:53:50.200Z,100075.63
2023-03-22T11:54:54.643Z,100077.00
2023-03-22T11:55:57.799Z,100077.28
2023-03-22T11:57:04.393Z,100072.00
2023-03-22T11:58:06.924Z,100070.09
2023-03-22T11:59:22.550Z,100067.50
2023-03-22T12:00:30.952Z,100061.97
2023-03-22T12:02:05.509Z,100069.00
2023-03-22T12:03:15.868Z,100065.44
2023-03-22T12:04:24.448Z,100064.47
2023-03-22T12:05:30.043Z,100064.63
2023-03-22T12:06:36.623Z,100062.75
2023-03-22T12:07:41.715Z,100062.50
2023-03-22T12:08:55.347Z,100059.56
2023-03-22T12:10:00.394Z,100057.09
2023-03-22T12:11:08.514Z,100065.13
2023-03-22T12:12:23.060Z,100067.22
2023-03-22T12:13:39.352Z,100073.25
2023-03-22T12:15:10.844Z,100071.38
2023-03-22T12:16:17.560Z,100069.06
2023-03-22T12:17:38.621Z,100066.69
2023-03-22T12:19:05.390Z,100066.84
2023-03-22T12:20:31.919Z,100060.19
2023-03-22T12:21:34.952Z,100068.94
2023-03-22T12:22:45.901Z,100064.03
2023-03-22T12:23:48.217Z,100062.91
2023-03-22T12:24:50.554Z,100069.56
2023-03-22T12:26:02.401Z,100061.50
2023-03-22T12:27:34.521Z,100063.59
2023-03-22T12:28:58.204Z,100059.66
2023-03-22T12:30:13.705Z,100065.59
2023-03-22T12:31:21.365Z,100061.75
2023-03-22T12:32:37.051Z,100061.88
2023-03-22T12:33:47.443Z,100048.56
2023-03-22T12:34:55.116Z,100063.13
2023-03-22T12:36:07.057Z,100065.03
2023-03-22T12:37:17.978Z,100062.72
2023-03-22T12:38:35.538Z,100057.56
2023-03-22T12:39:57.447Z,100058.38
2023-03-22T12:41:03.704Z,100058.91
2023-03-22T12:42:22.738Z,100060.97
2023-03-22T12:43:46.128Z,100061.50
2023-03-22T12:45:02.616Z,100053.34
2023-03-22T12:46:11.226Z,100058.28
2023-03-22T12:47:19.106Z,100056.09
2023-03-22T12:48:45.233Z,100055.69
2023-03-22T12:49:48.668Z,100044.78
2023-03-22T12:51:03.290Z,100050.38
2023-03-22T12:52:16.097Z,100056.94
2023-03-22T12:53:20.685Z,100055.38
2023-03-22T12:54:25.713Z,100053.56
2023-03-22T12:55:30.921Z,100053.44
2023-03-22T12:56:46.019Z,100051.75
2023-03-22T12:57:52.462Z,100054.47
2023-03-22T12:58:59.017Z,100052.28
2023-03-22T13:00:10.489Z,100048.72
2023-03-22T13:01:45.140Z,100045.28
2023-03-22T13:03:18.700Z,100044.78
2023-03-22T13:04:36.342Z,100037.16
2023-03-22T13:05:38.861Z,100037.53
2023-03-22T13:06:44.454Z,100038.63
2023-03-22T13:07:46.821Z,100041.84
2023-03-22T13:09:19.009Z,100038.22
2023-03-22T13:10:34.034Z,100034.28